createdAt,value
2017-08-30T00:00:06.838Z,32.37
2017-08-30T00:02:34.289Z,36.27
2017-08-30T00:05:01.779Z,32.93
2017-08-30T00:07:29.226Z,29.57
2017-08-30T00:09:56.689Z,31.00
2017-08-30T00:12:24.159Z,30.80
2017-08-30T00:14:51.613Z,32.43
2017-08-30T00:17:19.078Z,31.87
2017-08-30T00:19:46.551Z,31.80
2017-08-30T00:22:14.005Z,31.77
2017-08-30T00:24:53.562Z,30.67
2017-08-30T00:27:21.021Z,30.40
2017-08-30T00:29:48.479Z,29.53
2017-08-30T00:32:15.950Z,31.10
2017-08-30T00:34:43.405Z,29.00
2017-08-30T00:37:10.862Z,29.63
2017-08-30T00:39:38.327Z,34.00
2017-08-30T00:42:05.810Z,31.30
2017-08-30T00:44:33.267Z,33.57
2017-08-30T00:47:00.726Z,30.87
2017-08-30T00:49:28.203Z,128.33
2017-08-30T00:51:55.662Z,131.07
2017-08-30T00:54:23.117Z,57.77
2017-08-30T00:56:50.802Z,40.87
2017-08-30T00:59:18.263Z,33.07
2017-08-30T01:01:45.718Z,31.03
2017-08-30T01:04:13.184Z,30.83
2017-08-30T01:06:40.638Z,31.70
2017-08-30T01:09:08.096Z,32.83
2017-08-30T01:11:35.570Z,31.13
2017-08-30T01:14:03.026Z,27.53
2017-08-30T01:16:30.479Z,29.00
2017-08-30T01:18:58.211Z,29.47
2017-08-30T01:21:25.681Z,29.23
2017-08-30T01:23:53.133Z,28.73
2017-08-30T01:26:20.617Z,29.03
2017-08-30T01:28:48.070Z,28.50
2017-08-30T01:31:15.599Z,29.70
2017-08-30T01:33:43.066Z,28.70
2017-08-30T01:36:10.527Z,27.47
2017-08-30T01:38:38.001Z,30.73
2017-08-30T01:41:05.453Z,46.00
2017-08-30T01:43:32.910Z,40.50
2017-08-30T01:46:00.558Z,32.07
2017-08-30T01:48:28.017Z,30.20
2017-08-30T01:50:55.465Z,32.50
2017-08-30T01:53:23.289Z,28.70
2017-08-30T01:55:50.742Z,28.73
2017-08-30T01:58:18.198Z,30.40
2017-08-30T02:00:45.678Z,30.80
2017-08-30T02:03:13.137Z,31.60
2017-08-30T02:05:40.582Z,33.10
2017-08-30T02:08:08.053Z,34.93
2017-08-30T02:10:35.511Z,37.10
2017-08-30T02:13:02.974Z,39.07
2017-08-30T02:15:30.447Z,39.00
2017-08-30T02:17:57.891Z,38.70
2017-08-30T02:20:25.609Z,38.00
2017-08-30T02:22:53.066Z,42.57
2017-08-30T02:25:20.527Z,42.00
2017-08-30T02:27:48.094Z,40.27
2017-08-30T02:30:15.579Z,48.97
2017-08-30T02:32:43.026Z,45.40
2017-08-30T02:35:10.502Z,43.57
2017-08-30T02:37:37.962Z,43.63
2017-08-30T02:40:05.414Z,40.50
2017-08-30T02:42:32.898Z,44.57
2017-08-30T02:45:00.354Z,40.17
2017-08-30T02:47:27.810Z,41.00
2017-08-30T02:49:55.312Z,37.90
2017-08-30T02:52:22.782Z,40.03
2017-08-30T02:54:50.226Z,43.57
2017-08-30T02:57:17.726Z,42.97
2017-08-30T02:59:45.187Z,41.50
2017-08-30T03:02:12.642Z,42.77
2017-08-30T03:04:40.110Z,43.27
2017-08-30T03:07:07.572Z,44.17
2017-08-30T03:09:35.058Z,41.10
2017-08-30T03:12:02.516Z,42.77
2017-08-30T03:14:29.981Z,43.00
2017-08-30T03:16:57.446Z,45.53
2017-08-30T03:19:24.906Z,42.30
2017-08-30T03:21:52.383Z,42.40
2017-08-30T03:24:19.835Z,42.63
2017-08-30T03:26:47.299Z,44.17
2017-08-30T03:29:14.791Z,40.63
2017-08-30T03:31:42.249Z,40.13
2017-08-30T03:34:09.703Z,41.00
2017-08-30T03:36:37.176Z,40.57
2017-08-30T03:39:04.639Z,40.03
2017-08-30T03:41:32.100Z,41.50
2017-08-30T03:43:59.594Z,39.73
2017-08-30T03:46:27.053Z,40.67
2017-08-30T03:51:47.130Z,37.30
2017-08-30T03:54:14.583Z,38.00
2017-08-30T03:56:42.047Z,40.77
2017-08-30T03:59:09.512Z,36.90
2017-08-30T04:01:36.991Z,38.80
2017-08-30T04:04:04.451Z,37.30
2017-08-30T04:06:32.030Z,39.30
2017-08-30T04:08:59.839Z,39.73
2017-08-30T04:11:27.298Z,37.93
2017-08-30T04:13:54.755Z,39.03
2017-08-30T04:16:22.390Z,38.60
2017-08-30T04:18:49.848Z,38.23
2017-08-30T04:21:17.302Z,38.43
2017-08-30T04:23:44.798Z,38.47
2017-08-30T04:26:12.263Z,37.80
2017-08-30T04:28:39.719Z,40.67
2017-08-30T04:31:07.212Z,40.70
2017-08-30T04:33:34.688Z,41.10
2017-08-30T04:36:02.151Z,40.20
2017-08-30T04:38:29.656Z,40.37
2017-08-30T04:40:57.116Z,42.10
2017-08-30T04:43:24.602Z,42.10
2017-08-30T04:45:52.095Z,42.10
2017-08-30T04:48:19.551Z,41.90
2017-08-30T04:50:47.028Z,39.10
2017-08-30T04:53:14.494Z,41.10
2017-08-30T04:55:41.948Z,39.67
2017-08-30T04:58:09.453Z,38.20
2017-08-30T05:00:36.926Z,38.67
2017-08-30T05:03:04.383Z,39.17
2017-08-30T05:05:31.858Z,37.67
2017-08-30T05:07:59.321Z,35.83
2017-08-30T05:10:26.788Z,38.10
2017-08-30T05:12:54.483Z,40.30
2017-08-30T05:15:21.945Z,41.30
2017-08-30T05:17:49.394Z,40.33
2017-08-30T05:20:16.886Z,39.57
2017-08-30T05:22:44.343Z,41.17
2017-08-30T05:25:11.808Z,40.13
2017-08-30T05:27:39.568Z,39.93
2017-08-30T05:30:07.031Z,41.13
2017-08-30T05:32:34.505Z,72.53
2017-08-30T05:35:01.994Z,38.43
2017-08-30T05:37:29.451Z,38.23
2017-08-30T05:39:56.911Z,38.57
2017-08-30T05:42:24.673Z,37.47
2017-08-30T05:44:52.130Z,35.70
2017-08-30T05:47:19.594Z,35.20
2017-08-30T05:49:47.447Z,35.40
2017-08-30T05:52:15.043Z,35.73
2017-08-30T05:54:42.515Z,34.33
2017-08-30T05:57:10.007Z,33.73
2017-08-30T05:59:37.580Z,35.60
2017-08-30T06:02:05.440Z,34.53
2017-08-30T06:04:32.894Z,35.53
2017-08-30T06:07:00.395Z,36.00
2017-08-30T06:09:27.852Z,34.80
2017-08-30T06:11:55.314Z,34.43
2017-08-30T06:14:22.791Z,33.83
2017-08-30T06:16:50.250Z,36.10
2017-08-30T06:19:17.740Z,34.63
2017-08-30T06:21:45.199Z,36.03
2017-08-30T06:24:12.682Z,35.10
2017-08-30T06:26:40.147Z,34.13
2017-08-30T06:29:07.620Z,35.97
2017-08-30T06:31:35.114Z,34.03
2017-08-30T06:34:02.595Z,34.40
2017-08-30T06:36:30.052Z,33.00
2017-08-30T06:38:57.875Z,32.77
2017-08-30T06:41:25.336Z,31.57
2017-08-30T06:43:52.790Z,30.70
2017-08-30T06:46:20.275Z,30.17
2017-08-30T06:48:47.731Z,30.07
2017-08-30T06:51:15.200Z,31.30
2017-08-30T06:53:42.679Z,29.50
2017-08-30T06:56:10.343Z,28.60
2017-08-30T06:58:37.804Z,30.63
2017-08-30T07:01:05.275Z,29.47
2017-08-30T07:03:32.822Z,30.20
2017-08-30T07:06:00.275Z,31.27
2017-08-30T07:08:27.735Z,30.13
2017-08-30T07:10:55.220Z,28.83
2017-08-30T07:13:22.675Z,28.80
2017-08-30T07:15:50.135Z,28.07
2017-08-30T07:18:17.627Z,26.90
2017-08-30T07:20:45.083Z,26.80
2017-08-30T07:23:12.547Z,28.10
2017-08-30T07:25:40.345Z,26.30
2017-08-30T07:28:07.815Z,25.27
2017-08-30T07:30:35.312Z,24.67
2017-08-30T07:33:06.759Z,22.60
2017-08-30T07:35:34.224Z,24.00
2017-08-30T07:38:01.687Z,23.30
2017-08-30T07:40:29.166Z,24.30
2017-08-30T07:42:56.623Z,24.90
2017-08-30T07:45:24.085Z,23.60
2017-08-30T07:47:51.594Z,23.60
2017-08-30T07:50:19.071Z,23.10
2017-08-30T07:52:46.544Z,22.50
2017-08-30T07:55:14.199Z,24.80
2017-08-30T07:57:48.384Z,21.77
2017-08-30T08:00:15.860Z,22.10
2017-08-30T08:02:43.324Z,20.10
2017-08-30T08:05:10.818Z,19.90
2017-08-30T08:07:38.300Z,21.00
2017-08-30T08:10:05.764Z,20.90
2017-08-30T08:12:33.264Z,20.10
2017-08-30T08:15:00.744Z,20.87
2017-08-30T08:17:28.216Z,20.50
2017-08-30T08:19:55.984Z,19.50
2017-08-30T08:22:23.600Z,21.20
2017-08-30T08:24:51.316Z,20.23
2017-08-30T08:27:18.791Z,20.50
2017-08-30T08:29:46.294Z,19.43
2017-08-30T08:32:14.667Z,21.67
2017-08-30T08:34:42.156Z,20.10
2017-08-30T08:37:09.614Z,21.23
2017-08-30T08:39:37.409Z,19.80
2017-08-30T08:42:04.870Z,19.53
2017-08-30T08:44:32.443Z,20.70
2017-08-30T08:46:59.943Z,21.10
2017-08-30T08:49:27.416Z,20.20
2017-08-30T08:51:54.863Z,18.23
2017-08-30T08:54:22.345Z,26.30
2017-08-30T08:56:49.830Z,27.80
2017-08-30T08:59:17.286Z,20.23
2017-08-30T09:01:44.772Z,19.43
2017-08-30T09:04:12.254Z,26.27
2017-08-30T09:06:39.747Z,20.20
2017-08-30T09:09:07.706Z,18.37
2017-08-30T09:11:35.178Z,17.67
2017-08-30T09:14:02.650Z,16.43
2017-08-30T09:16:30.155Z,17.50
2017-08-30T09:18:57.631Z,17.10
2017-08-30T09:21:25.086Z,17.17
2017-08-30T09:23:52.574Z,16.53
2017-08-30T09:26:20.036Z,17.17
2017-08-30T09:28:47.510Z,17.13
2017-08-30T09:31:14.979Z,19.43
2017-08-30T09:33:42.468Z,28.47
2017-08-30T09:36:09.946Z,17.27
2017-08-30T09:38:37.450Z,16.10
2017-08-30T09:41:05.323Z,16.73
2017-08-30T09:43:33.187Z,16.37
2017-08-30T09:46:00.669Z,17.10
2017-08-30T09:48:28.124Z,16.30
2017-08-30T09:50:55.583Z,16.03
2017-08-30T09:53:23.071Z,16.00
2017-08-30T09:55:50.664Z,27.83
2017-08-30T09:58:18.120Z,22.97
2017-08-30T10:00:45.970Z,17.10
2017-08-30T10:03:13.427Z,15.00
2017-08-30T10:05:40.886Z,27.13
2017-08-30T10:08:08.379Z,33.83
2017-08-30T10:10:35.845Z,32.57
2017-08-30T10:13:03.310Z,17.10
2017-08-30T10:15:31.805Z,16.43
2017-08-30T10:17:59.311Z,19.40
2017-08-30T10:20:26.791Z,23.63
2017-08-30T10:22:54.757Z,16.70
2017-08-30T10:25:22.266Z,15.30
2017-08-30T10:27:49.747Z,14.17
2017-08-30T10:30:17.208Z,16.90
2017-08-30T10:32:44.670Z,14.97
2017-08-30T10:35:12.200Z,14.77
2017-08-30T10:37:39.671Z,15.70
2017-08-30T10:40:07.519Z,35.93
2017-08-30T10:42:35.008Z,43.13
2017-08-30T10:45:02.497Z,21.30
2017-08-30T10:47:30.026Z,19.63
2017-08-30T10:49:58.322Z,14.60
2017-08-30T10:52:25.779Z,15.47
2017-08-30T10:54:53.921Z,15.27
2017-08-30T10:57:21.429Z,15.33
2017-08-30T10:59:49.048Z,15.13
2017-08-30T11:02:16.536Z,15.30
2017-08-30T11:04:44.024Z,15.07
2017-08-30T11:07:11.488Z,15.67
2017-08-30T11:09:38.966Z,14.90
2017-08-30T11:12:06.455Z,14.10
2017-08-30T11:14:33.919Z,14.30
2017-08-30T11:17:01.408Z,14.70
2017-08-30T11:19:28.874Z,28.13
2017-08-30T11:21:56.348Z,107.93
2017-08-30T11:24:23.852Z,42.97
2017-08-30T11:26:51.310Z,24.20
2017-08-30T11:29:18.773Z,18.87
2017-08-30T11:31:46.230Z,16.33
2017-08-30T11:34:13.987Z,16.73
2017-08-30T11:36:41.443Z,16.27
2017-08-30T11:39:08.902Z,15.93
2017-08-30T11:41:36.398Z,16.13
2017-08-30T11:44:03.855Z,14.20
2017-08-30T11:46:31.322Z,16.30
2017-08-30T11:48:58.799Z,15.80
2017-08-30T11:51:26.259Z,15.90
2017-08-30T11:53:53.719Z,14.60
2017-08-30T11:56:21.298Z,15.60
2017-08-30T11:58:49.090Z,33.27
2017-08-30T12:01:16.566Z,55.40
2017-08-30T12:03:44.045Z,43.13
2017-08-30T12:06:11.519Z,24.37
2017-08-30T12:08:39.021Z,17.90
2017-08-30T12:11:06.517Z,16.17
2017-08-30T12:13:34.086Z,15.40
2017-08-30T12:16:01.546Z,15.93
2017-08-30T12:18:29.029Z,16.17
2017-08-30T12:20:56.751Z,16.30
2017-08-30T12:23:24.523Z,17.20
2017-08-30T12:25:51.991Z,16.90
2017-08-30T12:28:19.544Z,18.47
2017-08-30T12:30:47.041Z,18.77
2017-08-30T12:33:14.510Z,17.20
2017-08-30T12:35:41.974Z,17.90
2017-08-30T12:38:15.127Z,18.40
2017-08-30T12:40:42.588Z,18.03
2017-08-30T12:43:10.228Z,17.30
2017-08-30T12:45:37.703Z,16.33
2017-08-30T12:48:05.163Z,17.97
2017-08-30T12:50:32.658Z,18.63
2017-08-30T12:53:00.110Z,21.20
2017-08-30T12:55:27.570Z,18.07
2017-08-30T12:57:55.115Z,18.07
2017-08-30T13:00:22.762Z,18.10
2017-08-30T13:02:50.251Z,21.40
2017-08-30T13:05:17.743Z,21.90
2017-08-30T13:07:45.203Z,21.03
2017-08-30T13:10:12.666Z,21.37
2017-08-30T13:12:40.240Z,20.70
2017-08-30T13:15:07.698Z,21.33
2017-08-30T13:17:35.159Z,21.43
2017-08-30T13:20:02.655Z,20.27
2017-08-30T13:22:30.124Z,20.13
2017-08-30T13:24:57.596Z,21.70
2017-08-30T13:27:25.435Z,22.87
2017-08-30T13:29:52.908Z,21.90
2017-08-30T13:32:20.374Z,22.27
2017-08-30T13:34:47.881Z,22.10
2017-08-30T13:37:15.351Z,21.87
2017-08-30T13:39:43.212Z,22.07
2017-08-30T13:42:10.671Z,21.00
2017-08-30T13:44:38.139Z,23.17
2017-08-30T13:47:05.723Z,22.63
2017-08-30T13:49:33.195Z,21.60
2017-08-30T13:52:00.659Z,21.00
2017-08-30T13:54:28.142Z,21.40
2017-08-30T13:56:55.605Z,22.00
2017-08-30T13:59:23.309Z,21.50
2017-08-30T14:01:50.783Z,21.37
2017-08-30T14:04:18.246Z,22.60
2017-08-30T14:06:45.710Z,23.07
2017-08-30T14:09:13.207Z,22.70
2017-08-30T14:11:40.672Z,22.60
2017-08-30T14:14:08.147Z,22.00
2017-08-30T14:16:35.780Z,21.57
2017-08-30T14:19:03.623Z,20.33
2017-08-30T14:21:31.096Z,20.37
2017-08-30T14:23:58.546Z,23.00
2017-08-30T14:26:26.036Z,21.50
2017-08-30T14:28:53.519Z,21.20
2017-08-30T14:31:20.995Z,21.83
2017-08-30T14:33:48.475Z,21.23
2017-08-30T14:36:15.935Z,20.07
2017-08-30T14:38:43.394Z,20.53
2017-08-30T14:41:11.226Z,21.17
2017-08-30T14:43:38.687Z,21.07
2017-08-30T14:46:06.152Z,21.03
2017-08-30T14:48:33.650Z,18.93
2017-08-30T14:51:01.107Z,19.10
2017-08-30T14:53:28.574Z,18.47
2017-08-30T14:55:56.254Z,19.70
2017-08-30T14:58:23.715Z,18.57
2017-08-30T15:00:51.170Z,18.83
2017-08-30T15:03:18.656Z,24.40
2017-08-30T15:05:46.115Z,20.67
2017-08-30T15:08:13.797Z,18.90
2017-08-30T15:10:41.355Z,18.50
2017-08-30T15:13:08.812Z,20.47
2017-08-30T15:15:36.620Z,20.43
2017-08-30T15:18:04.079Z,20.10
2017-08-30T15:20:31.547Z,19.17
2017-08-30T15:22:59.058Z,20.20
2017-08-30T15:25:26.518Z,19.10
2017-08-30T15:27:53.983Z,20.07
2017-08-30T15:30:21.475Z,19.43
2017-08-30T15:32:48.930Z,18.67
2017-08-30T15:35:16.391Z,19.77
2017-08-30T15:37:44.114Z,19.10
2017-08-30T15:40:11.575Z,18.77
2017-08-30T15:42:39.046Z,20.43
2017-08-30T15:45:06.784Z,18.37
2017-08-30T15:47:34.434Z,20.30
2017-08-30T15:50:01.894Z,21.13
2017-08-30T15:52:29.386Z,21.40
2017-08-30T15:54:56.861Z,19.80
2017-08-30T15:57:24.318Z,20.77
2017-08-30T15:59:51.803Z,19.90
2017-08-30T16:02:19.263Z,19.50
2017-08-30T16:04:46.721Z,22.10
2017-08-30T16:07:14.202Z,20.00
2017-08-30T16:09:41.666Z,20.37
2017-08-30T16:12:09.519Z,20.60
2017-08-30T16:14:36.979Z,21.10
2017-08-30T16:17:04.439Z,21.17
2017-08-30T16:19:31.935Z,20.80
2017-08-30T16:21:59.395Z,20.43
2017-08-30T16:24:26.859Z,21.90
2017-08-30T16:26:54.359Z,22.03
2017-08-30T16:29:21.814Z,22.43
2017-08-30T16:31:49.271Z,22.60
2017-08-30T16:34:16.751Z,24.20
2017-08-30T16:36:44.216Z,22.77
2017-08-30T16:39:11.672Z,23.33
2017-08-30T16:41:39.152Z,22.80
2017-08-30T16:44:06.623Z,24.90
2017-08-30T16:46:34.090Z,23.87
2017-08-30T16:49:01.576Z,22.60
2017-08-30T16:51:29.036Z,21.93
2017-08-30T16:53:56.490Z,23.10
2017-08-30T16:56:24.229Z,23.33
2017-08-30T16:58:51.683Z,23.47
2017-08-30T17:01:19.147Z,24.63
2017-08-30T17:03:46.715Z,23.00
2017-08-30T17:06:14.191Z,22.07
2017-08-30T17:08:41.652Z,22.27
2017-08-30T17:11:09.120Z,23.03
2017-08-30T17:13:36.600Z,22.63
2017-08-30T17:16:04.102Z,20.73
2017-08-30T17:18:31.559Z,23.00
2017-08-30T17:20:59.033Z,21.00
2017-08-30T17:23:26.508Z,28.70
2017-08-30T17:25:53.972Z,24.80
2017-08-30T17:28:21.426Z,22.63
2017-08-30T17:30:49.010Z,23.93
2017-08-30T17:33:16.468Z,23.00
2017-08-30T17:35:43.931Z,21.40
2017-08-30T17:38:11.411Z,22.33
2017-08-30T17:40:38.867Z,27.97
2017-08-30T17:43:06.330Z,23.87
2017-08-30T17:45:33.789Z,25.90
2017-08-30T17:48:01.254Z,23.97
2017-08-30T17:50:29.055Z,23.00
2017-08-30T17:52:56.611Z,30.93
2017-08-30T17:55:24.177Z,25.00
2017-08-30T17:57:51.886Z,24.57
2017-08-30T18:00:19.352Z,25.20
2017-08-30T18:02:46.814Z,23.70
2017-08-30T18:05:14.832Z,38.70
2017-08-30T18:07:42.283Z,29.00
2017-08-30T18:10:09.739Z,25.10
2017-08-30T18:12:37.211Z,25.37
2017-08-30T18:15:04.935Z,23.57
2017-08-30T18:17:32.400Z,25.00
2017-08-30T18:20:00.427Z,25.40
2017-08-30T18:22:28.813Z,27.60
2017-08-30T18:24:56.279Z,28.80
2017-08-30T18:27:23.735Z,45.93
2017-08-30T18:29:52.363Z,49.60
2017-08-30T18:32:21.811Z,30.07
2017-08-30T18:34:49.282Z,26.93
2017-08-30T18:37:17.210Z,68.83
2017-08-30T18:39:45.208Z,100.97
2017-08-30T18:42:12.671Z,49.50
2017-08-30T18:44:40.139Z,35.50
2017-08-30T18:47:08.566Z,31.30
2017-08-30T18:49:36.271Z,30.00
2017-08-30T18:52:04.263Z,29.13
2017-08-30T18:54:31.735Z,25.40
2017-08-30T18:56:59.238Z,25.80
2017-08-30T18:59:28.732Z,25.67
2017-08-30T19:01:56.204Z,28.67
2017-08-30T19:04:27.360Z,25.70
2017-08-30T19:06:55.915Z,24.20
2017-08-30T19:09:25.331Z,26.13
2017-08-30T19:11:54.588Z,26.47
2017-08-30T19:14:24.189Z,25.03
2017-08-30T19:16:53.664Z,27.17
2017-08-30T19:19:22.476Z,26.20
2017-08-30T19:21:53.241Z,25.43
2017-08-30T19:24:23.739Z,26.00
2017-08-30T19:26:57.760Z,28.50
2017-08-30T19:29:26.117Z,31.33
2017-08-30T19:31:53.584Z,27.27
2017-08-30T19:34:21.287Z,28.50
2017-08-30T19:36:51.227Z,32.07
2017-08-30T19:39:23.145Z,29.90
2017-08-30T19:41:50.619Z,31.83
2017-08-30T19:44:18.087Z,38.43
2017-08-30T19:46:49.165Z,35.20
2017-08-30T19:49:18.172Z,37.90
2017-08-30T19:51:46.941Z,29.20
2017-08-30T19:54:15.277Z,27.73
2017-08-30T19:56:44.591Z,157.57
2017-08-30T19:59:12.691Z,43.83
2017-08-30T20:01:40.156Z,31.40
2017-08-30T20:04:07.632Z,28.13
2017-08-30T20:06:35.120Z,28.57
2017-08-30T20:09:03.027Z,27.50
2017-08-30T20:11:30.664Z,31.10
2017-08-30T20:13:58.122Z,28.17
2017-08-30T20:16:26.540Z,29.60
2017-08-30T20:18:54.307Z,27.73
2017-08-30T20:21:21.943Z,27.97
2017-08-30T20:23:49.409Z,26.70
2017-08-30T20:26:17.091Z,27.57
2017-08-30T20:28:44.559Z,27.40
2017-08-30T20:31:12.022Z,27.10
2017-08-30T20:33:39.530Z,25.80
2017-08-30T20:36:07.011Z,26.03
2017-08-30T20:38:34.479Z,26.80
2017-08-30T20:41:01.963Z,28.13
2017-08-30T20:43:29.438Z,27.17
2017-08-30T20:45:56.907Z,42.83
2017-08-30T20:48:24.381Z,33.90
2017-08-30T20:50:51.887Z,29.30
2017-08-30T20:53:20.295Z,28.50
2017-08-30T20:55:48.233Z,29.97
2017-08-30T20:58:15.793Z,30.63
2017-08-30T21:00:43.255Z,28.47
2017-08-30T21:03:10.747Z,85.97
2017-08-30T21:05:42.548Z,42.50
2017-08-30T21:08:10.025Z,31.70
2017-08-30T21:10:37.536Z,31.40
2017-08-30T21:13:05.299Z,30.87
2017-08-30T21:15:32.962Z,36.37
2017-08-30T21:18:00.675Z,40.67
2017-08-30T21:20:29.578Z,40.77
2017-08-30T21:22:57.042Z,44.57
2017-08-30T21:25:24.532Z,47.70
2017-08-30T21:27:51.996Z,53.10
2017-08-30T21:30:19.466Z,53.93
2017-08-30T21:32:46.940Z,55.23
2017-08-30T21:35:14.743Z,51.60
2017-08-30T21:37:42.602Z,50.13
2017-08-30T21:40:10.068Z,42.03
2017-08-30T21:42:37.531Z,43.33
2017-08-30T21:45:05.002Z,55.03
2017-08-30T21:47:32.556Z,65.27
2017-08-30T21:50:00.023Z,41.97
2017-08-30T21:52:27.483Z,36.77
2017-08-30T21:54:54.970Z,35.70
2017-08-30T21:57:22.426Z,39.43
2017-08-30T21:59:49.883Z,36.60
2017-08-30T22:02:17.367Z,41.70
2017-08-30T22:04:44.823Z,39.13
2017-08-30T22:07:12.269Z,35.27
2017-08-30T22:09:39.730Z,38.47
2017-08-30T22:12:07.203Z,41.50
2017-08-30T22:14:34.963Z,36.27
2017-08-30T22:17:02.399Z,36.07
2017-08-30T22:19:29.862Z,38.27
2017-08-30T22:21:57.442Z,37.97
2017-08-30T22:24:24.906Z,37.20
2017-08-30T22:26:52.368Z,36.87
2017-08-30T22:29:19.856Z,38.50
2017-08-30T22:31:47.319Z,38.07
2017-08-30T22:34:14.774Z,39.80
2017-08-30T22:36:42.505Z,39.40
2017-08-30T22:39:09.960Z,40.50
2017-08-30T22:41:37.415Z,40.30
2017-08-30T22:44:04.903Z,40.33
2017-08-30T22:46:32.358Z,41.47
2017-08-30T22:48:59.819Z,41.47
2017-08-30T22:51:27.298Z,46.57
2017-08-30T22:53:54.756Z,45.27
2017-08-30T22:56:22.210Z,47.37
2017-08-30T22:58:49.787Z,47.67
2017-08-30T23:01:17.251Z,49.40
2017-08-30T23:03:44.706Z,49.77
2017-08-30T23:06:12.191Z,51.80
2017-08-30T23:08:39.655Z,47.77
2017-08-30T23:11:07.162Z,50.90
2017-08-30T23:13:34.748Z,51.13
2017-08-30T23:16:02.203Z,51.93
2017-08-30T23:18:29.665Z,53.33
2017-08-30T23:20:57.355Z,49.03
2017-08-30T23:23:24.815Z,47.17
2017-08-30T23:25:52.271Z,41.60
2017-08-30T23:28:19.923Z,44.97
2017-08-30T23:30:47.383Z,41.27
2017-08-30T23:33:14.840Z,42.00
2017-08-30T23:35:42.598Z,39.80
2017-08-30T23:38:10.298Z,39.77
2017-08-30T23:40:37.755Z,39.10
2017-08-30T23:43:05.245Z,41.13
2017-08-30T23:45:32.706Z,35.57
2017-08-30T23:48:00.166Z,33.43
2017-08-30T23:50:27.745Z,35.77
2017-08-30T23:52:55.199Z,35.20
2017-08-30T23:55:22.653Z,33.90
2017-08-30T23:57:50.111Z,34.20
